Portada
METAR-TAF:

METAR-TAF

Aeropuertos :

Aeropuerto Internacional de Chongqing-Jiangbei

Chongqing, China

latitud: 29-31N, longitud: 106-29E, altitud: 351 m

Observación

El informe se hizo hace 21 minutos, a las 01:00 UTC
Viento 4 kt del este-sureste, variando entre este y sureste
Temperatura 22°C
Humedad 73%
Presión 1011 hPa
Visibilidad: 8000 m

METAR: ZUCK 290100Z 11002MPS 080V140 8000 NSC 22/17 Q1011 NOSIG

Hora: 09:21 (01:21 UTC)

Pronóstico

El informe se hizo hace 4 horas y 19 minutos, a las 21:02 UTC
Pronóstico válido del 29 a las 00 UTC al 29 a las 24 UTC
Viento 6 kt del norte-noreste
Visibilidad: 6000 m
Nubes dispersas a una altura de 5000 ft

TAF: ZUCK 282102Z 2900/2924 03003MPS 6000 SCT050 TX27/2907Z TN20/2900Z

Observaciones y pronósticos meteorológicos de más de 4000 aeropuertos (mensajes METAR y TAF).

Los puntos amarillos y rojos representan las estaciones disponibles.

Ponga el ratón en el punto deseado para ver el nombre de la estación.

Haga clic para ver las observaciones y los pronósticos meteorológicos.

Para cambiar el mapa : haga clic en los botones verdes con una cruz de color negro para hacer un zoom, en el botón verde con un guión para alejar o en las flechas verdes para mapas adyacentes.


METAR-TAF: